Terminal Aerodrome Forecast
Issued by NWS Cleveland, OH

Home | Current Version | Previous Version | Graphics & Text | Print | Product List | Glossary On
Versions: 1 2 3 4 5 6 7 8 9 10 11 12 13 14 15 16 17 18
245
FTUS41 KCLE 151358 AAC
TAFMFD
TAF AMD
KMFD 151358Z 1514/1612 15003KT 1/4SM FZFG VV002
     FM151500 13003KT 1 1/2SM BR OVC006
     FM151600 12003KT 3SM BR BKN012
     FM151800 09003KT P6SM BKN250=

USA.gov is the U.S. government's official web portal to all federal, state and local government web resources and services.